createdAt,value
2022-10-28T00:01:27.316Z,14.70
2022-10-28T00:03:56.970Z,14.60
2022-10-28T00:06:26.270Z,14.40
2022-10-28T00:08:54.526Z,14.30
2022-10-28T00:11:25.559Z,14.20
2022-10-28T00:13:56.668Z,14.20
2022-10-28T00:16:26.915Z,14.20
2022-10-28T00:18:55.663Z,14.30
2022-10-28T00:21:25.467Z,14.50
2022-10-28T00:23:54.120Z,14.60
2022-10-28T00:26:26.820Z,14.70
2022-10-28T00:28:59.686Z,14.60
2022-10-28T00:31:31.170Z,14.50
2022-10-28T00:34:00.352Z,14.30
2022-10-28T00:36:31.712Z,14.20
2022-10-28T00:39:04.100Z,14.20
2022-10-28T00:41:36.704Z,14.20
2022-10-28T00:44:38.269Z,14.30
2022-10-28T00:47:14.530Z,14.30
2022-10-28T00:49:43.920Z,14.30
2022-10-28T00:52:17.332Z,14.40
2022-10-28T00:54:46.326Z,14.70
2022-10-28T00:57:21.558Z,15.30
2022-10-28T00:59:54.727Z,16.10
2022-10-28T01:02:25.962Z,16.70
2022-10-28T01:04:54.372Z,17.10
2022-10-28T01:07:23.259Z,16.70
2022-10-28T01:09:52.607Z,15.90
2022-10-28T01:12:33.330Z,15.30
2022-10-28T01:15:09.276Z,15.00
2022-10-28T01:17:55.273Z,14.70
2022-10-28T01:21:03.071Z,14.50
2022-10-28T01:23:37.243Z,14.20
2022-10-28T01:26:29.825Z,14.10
2022-10-28T01:29:30.480Z,14.40
2022-10-28T01:32:04.562Z,14.80
2022-10-28T01:34:37.789Z,14.80
2022-10-28T01:37:13.844Z,14.70
2022-10-28T01:39:48.289Z,14.50
2022-10-28T01:42:26.054Z,14.50
2022-10-28T01:45:02.534Z,14.40
2022-10-28T01:47:35.891Z,14.20
2022-10-28T01:50:07.304Z,14.10
2022-10-28T01:52:41.551Z,14.00
2022-10-28T01:55:14.474Z,14.00
2022-10-28T01:57:44.470Z,14.10
2022-10-28T02:00:13.555Z,14.10
2022-10-28T02:02:44.079Z,14.00
2022-10-28T02:05:43.620Z,13.90
2022-10-28T02:08:27.164Z,14.00
2022-10-28T02:11:16.739Z,14.20
2022-10-28T02:13:55.519Z,14.60
2022-10-28T02:16:29.344Z,15.10
2022-10-28T02:19:05.467Z,15.40
2022-10-28T02:21:44.591Z,15.80
2022-10-28T02:24:21.975Z,16.10
2022-10-28T02:26:55.591Z,16.20
2022-10-28T02:29:30.371Z,16.50
2022-10-28T02:32:02.499Z,16.20
2022-10-28T02:34:35.227Z,15.90
2022-10-28T02:37:09.792Z,15.70
2022-10-28T02:39:42.602Z,15.40
2022-10-28T02:42:15.948Z,15.20
2022-10-28T02:44:50.708Z,15.00
2022-10-28T02:47:22.045Z,14.80
2022-10-28T02:49:58.108Z,14.60
2022-10-28T02:52:32.442Z,14.60
2022-10-28T02:55:05.829Z,14.60
2022-10-28T02:57:36.349Z,14.70
2022-10-28T03:00:10.833Z,14.80
2022-10-28T03:02:39.001Z,15.20
2022-10-28T03:05:09.319Z,15.70
2022-10-28T03:07:37.409Z,15.90
2022-10-28T03:10:05.794Z,16.20
2022-10-28T03:12:34.092Z,16.30
2022-10-28T03:15:03.057Z,16.30
2022-10-28T03:17:31.226Z,16.30
2022-10-28T03:19:59.325Z,16.20
2022-10-28T03:22:28.729Z,15.90
2022-10-28T03:24:56.766Z,15.60
2022-10-28T03:27:24.880Z,15.30
2022-10-28T03:29:52.893Z,15.10
2022-10-28T03:34:48.811Z,15.70
2022-10-28T03:37:16.768Z,16.10
2022-10-28T03:39:49.092Z,16.60
2022-10-28T03:42:17.170Z,17.10
2022-10-28T03:44:45.159Z,17.40
2022-10-28T03:47:15.049Z,17.50
2022-10-28T03:49:43.034Z,17.60
2022-10-28T03:52:11.204Z,17.60
2022-10-28T03:54:40.837Z,17.60
2022-10-28T03:57:10.322Z,17.50
2022-10-28T03:59:38.395Z,16.90
2022-10-28T04:02:08.661Z,16.50
2022-10-28T04:04:36.718Z,16.20
2022-10-28T04:07:04.742Z,16.00
2022-10-28T04:09:32.770Z,15.80
2022-10-28T04:12:00.791Z,15.80
2022-10-28T04:14:30.226Z,16.00
2022-10-28T04:16:58.274Z,16.50
2022-10-28T04:19:26.390Z,16.60
2022-10-28T04:21:54.388Z,16.60
2022-10-28T04:24:22.455Z,16.40
2022-10-28T04:26:50.590Z,16.40
2022-10-28T04:29:19.303Z,16.20
2022-10-28T04:31:51.419Z,16.10
2022-10-28T04:34:20.407Z,16.10
2022-10-28T04:36:49.734Z,16.30
2022-10-28T04:39:20.838Z,16.80
2022-10-28T04:41:48.986Z,17.40
2022-10-28T04:44:19.143Z,17.60
2022-10-28T04:46:48.535Z,17.80
2022-10-28T04:49:16.565Z,17.80
2022-10-28T04:51:47.956Z,17.80
2022-10-28T04:54:21.420Z,18.00
2022-10-28T04:56:49.486Z,18.10
2022-10-28T04:59:18.864Z,18.30
2022-10-28T05:01:48.544Z,18.40
2022-10-28T05:04:28.267Z,18.40
2022-10-28T05:07:23.488Z,18.50
2022-10-28T05:09:52.025Z,18.50
2022-10-28T05:12:24.586Z,18.40
2022-10-28T05:15:01.926Z,18.40
2022-10-28T05:17:32.884Z,18.40
2022-10-28T05:20:01.036Z,18.60
2022-10-28T05:22:29.184Z,18.60
2022-10-28T05:24:57.723Z,18.70
2022-10-28T05:27:47.001Z,18.60
2022-10-28T05:30:22.896Z,18.60
2022-10-28T05:33:09.948Z,18.60
2022-10-28T05:36:26.530Z,18.60
2022-10-28T05:39:35.604Z,18.50
2022-10-28T05:45:19.410Z,18.50
2022-10-28T05:48:08.738Z,18.30
2022-10-28T05:54:49.802Z,18.10
2022-10-28T05:58:22.727Z,18.20
2022-10-28T06:01:17.337Z,18.30
2022-10-28T06:03:53.891Z,18.40
2022-10-28T06:06:21.988Z,18.60
2022-10-28T06:08:50.038Z,18.60
2022-10-28T06:11:16.952Z,18.60
2022-10-28T06:13:45.015Z,18.70
2022-10-28T06:16:13.183Z,18.70
2022-10-28T06:18:41.228Z,18.80
2022-10-28T06:21:11.608Z,18.90
2022-10-28T06:23:39.790Z,18.90
2022-10-28T06:26:08.795Z,18.90
2022-10-28T06:28:36.873Z,18.90
2022-10-28T06:31:07.046Z,18.90
2022-10-28T06:33:35.617Z,18.90
2022-10-28T06:36:04.627Z,18.90
2022-10-28T06:38:34.206Z,18.90
2022-10-28T06:41:02.296Z,19.00
2022-10-28T06:43:30.521Z,19.10
2022-10-28T06:46:01.783Z,19.10
2022-10-28T06:48:31.433Z,19.10
2022-10-28T06:50:59.687Z,19.10
2022-10-28T06:53:27.931Z,19.10
2022-10-28T06:55:59.118Z,19.20
2022-10-28T06:58:27.345Z,19.30
2022-10-28T07:00:55.481Z,19.20
2022-10-28T07:03:23.942Z,19.30
2022-10-28T07:05:52.106Z,19.40
2022-10-28T07:08:20.295Z,19.40
2022-10-28T07:10:56.157Z,19.40
2022-10-28T07:13:28.410Z,19.50
2022-10-28T07:16:01.271Z,19.70
2022-10-28T07:18:30.722Z,19.70
2022-10-28T07:21:00.124Z,19.70
2022-10-28T07:23:28.398Z,19.70
2022-10-28T07:25:57.478Z,19.80
2022-10-28T07:28:28.230Z,19.90
2022-10-28T07:30:56.386Z,19.80
2022-10-28T07:33:24.484Z,19.80
2022-10-28T07:35:52.548Z,19.80
2022-10-28T07:38:20.665Z,19.80
2022-10-28T07:40:48.571Z,19.90
2022-10-28T07:43:16.594Z,19.90
2022-10-28T07:45:46.276Z,20.20
2022-10-28T07:48:14.690Z,20.20
2022-10-28T07:50:43.088Z,20.30
2022-10-28T07:53:11.195Z,20.40
2022-10-28T07:55:39.301Z,20.40
2022-10-28T07:58:07.360Z,20.40
2022-10-28T08:00:35.452Z,20.40
2022-10-28T08:03:05.119Z,20.40
2022-10-28T08:05:33.234Z,20.40
2022-10-28T08:08:01.216Z,20.40
2022-10-28T08:10:29.418Z,20.40
2022-10-28T08:12:58.240Z,20.40
2022-10-28T08:15:26.420Z,20.50
2022-10-28T08:17:54.944Z,20.50
2022-10-28T08:20:24.753Z,20.50
2022-10-28T08:22:52.961Z,20.50
2022-10-28T08:25:21.162Z,20.60
2022-10-28T08:27:49.217Z,20.60
2022-10-28T08:30:19.789Z,20.60
2022-10-28T08:32:47.869Z,20.50
2022-10-28T08:35:16.007Z,20.40
2022-10-28T08:37:52.316Z,20.10
2022-10-28T08:40:31.159Z,20.10
2022-10-28T08:43:07.055Z,20.20
2022-10-28T08:45:45.478Z,20.40
2022-10-28T08:48:21.323Z,20.50
2022-10-28T08:50:52.932Z,20.70
2022-10-28T08:53:29.609Z,20.80
2022-10-28T08:56:06.722Z,20.90
2022-10-28T08:58:37.413Z,21.00
2022-10-28T09:01:10.277Z,21.10
2022-10-28T09:03:42.626Z,21.20
2022-10-28T09:06:11.989Z,21.30
2022-10-28T09:08:44.710Z,21.40
2022-10-28T09:11:57.259Z,21.50
2022-10-28T09:14:45.484Z,21.60
2022-10-28T09:17:23.277Z,21.80
2022-10-28T09:19:52.973Z,21.80
2022-10-28T09:22:26.359Z,21.90
2022-10-28T09:32:37.247Z,22.30
2022-10-28T09:35:09.927Z,22.30
2022-10-28T09:37:50.970Z,22.40
2022-10-28T09:40:23.405Z,22.40
2022-10-28T09:43:00.528Z,22.00
2022-10-28T09:45:31.909Z,21.60
2022-10-28T09:48:05.212Z,21.20
2022-10-28T10:03:18.728Z,21.10
2022-10-28T10:25:38.016Z,21.50
2022-10-28T10:28:51.019Z,21.90
2022-10-28T10:54:38.491Z,22.00
2022-10-28T10:58:14.065Z,22.10
2022-10-28T11:00:58.797Z,22.50
2022-10-28T11:06:42.641Z,23.30
2022-10-28T11:09:22.215Z,23.50
2022-10-28T11:11:50.371Z,23.40
2022-10-28T11:14:28.996Z,22.90
2022-10-28T11:17:00.398Z,22.60
2022-10-28T11:19:31.424Z,22.40
2022-10-28T11:22:20.883Z,22.40
2022-10-28T11:25:15.197Z,22.50
2022-10-28T11:28:04.882Z,22.50
2022-10-28T11:31:24.309Z,22.50
2022-10-28T11:34:20.698Z,22.40
2022-10-28T11:40:16.589Z,22.60
2022-10-28T11:42:56.189Z,23.10
2022-10-28T11:45:32.949Z,23.50
2022-10-28T11:48:19.158Z,23.80
2022-10-28T11:50:59.685Z,24.20
2022-10-28T11:54:01.714Z,24.10
2022-10-28T11:56:36.246Z,23.80
2022-10-28T11:59:38.015Z,23.50
2022-10-28T12:02:53.370Z,23.40
2022-10-28T12:05:33.802Z,23.00
2022-10-28T12:08:30.873Z,23.00
2022-10-28T12:11:13.854Z,23.00
2022-10-28T12:13:51.747Z,23.10
2022-10-28T12:16:29.803Z,23.30
2022-10-28T12:19:05.134Z,23.30
2022-10-28T12:25:59.595Z,23.10
2022-10-28T12:32:04.707Z,22.60
2022-10-28T12:39:03.844Z,22.90
2022-10-28T12:42:05.754Z,23.10
2022-10-28T12:48:20.404Z,23.30
2022-10-28T12:50:54.325Z,23.40
2022-10-28T12:53:36.026Z,23.40
2022-10-28T12:56:14.345Z,23.50
2022-10-28T12:58:55.256Z,23.60
2022-10-28T13:01:35.067Z,23.70
2022-10-28T13:04:12.267Z,23.80
2022-10-28T13:07:35.621Z,23.90
2022-10-28T13:10:35.458Z,24.00
2022-10-28T13:13:26.002Z,24.00
2022-10-28T13:16:33.698Z,24.00
2022-10-28T13:19:30.376Z,24.10
2022-10-28T13:22:18.274Z,24.10
2022-10-28T13:24:57.108Z,24.20
2022-10-28T13:27:25.939Z,24.20
2022-10-28T13:29:56.037Z,24.10
2022-10-28T13:32:38.328Z,23.90
2022-10-28T13:35:16.450Z,23.70
2022-10-28T13:37:48.600Z,23.60
2022-10-28T13:44:37.117Z,23.40
2022-10-28T13:47:37.195Z,23.50
2022-10-28T13:50:33.471Z,23.30
2022-10-28T13:53:45.881Z,23.10
2022-10-28T13:56:34.282Z,23.00
2022-10-28T13:59:05.079Z,22.90
2022-10-28T14:02:07.528Z,22.90
2022-10-28T14:04:41.873Z,22.90
2022-10-28T14:07:21.944Z,22.90
2022-10-28T14:18:29.613Z,23.30
2022-10-28T14:21:08.738Z,23.50
2022-10-28T14:24:12.091Z,23.50
2022-10-28T14:27:30.238Z,23.50
2022-10-28T14:30:28.433Z,23.50
2022-10-28T14:33:28.232Z,23.50
2022-10-28T14:36:43.550Z,23.30
2022-10-28T14:39:55.275Z,23.10
2022-10-28T14:50:32.874Z,22.40
2022-10-28T14:53:38.423Z,22.40
2022-10-28T14:59:48.997Z,21.90
2022-10-28T15:02:20.205Z,21.90
2022-10-28T15:04:58.757Z,21.80
2022-10-28T15:07:34.143Z,21.80
2022-10-28T15:10:15.942Z,21.90
2022-10-28T15:16:35.196Z,22.10
2022-10-28T15:19:08.807Z,22.00
2022-10-28T15:21:43.204Z,21.90
2022-10-28T15:24:53.425Z,21.70
2022-10-28T15:27:23.528Z,21.50
2022-10-28T15:29:52.340Z,21.30
2022-10-28T15:32:33.986Z,21.20
2022-10-28T15:35:43.088Z,21.10
2022-10-28T15:38:39.260Z,21.00
2022-10-28T15:41:49.207Z,20.80
2022-10-28T15:44:34.752Z,20.80
2022-10-28T15:47:18.672Z,20.80
2022-10-28T15:50:02.780Z,20.90
2022-10-28T15:52:36.637Z,20.80
2022-10-28T15:55:41.032Z,20.70
2022-10-28T15:58:46.501Z,20.50
2022-10-28T16:01:31.547Z,20.40
2022-10-28T16:04:03.052Z,20.30
2022-10-28T16:06:33.688Z,20.30
2022-10-28T16:09:18.755Z,20.40
2022-10-28T16:11:50.414Z,20.40
2022-10-28T16:14:34.776Z,20.60
2022-10-28T16:17:13.700Z,20.70
2022-10-28T16:19:45.609Z,20.80
2022-10-28T16:22:14.949Z,21.00
2022-10-28T16:24:43.453Z,21.20
2022-10-28T16:27:25.193Z,21.30
2022-10-28T16:29:59.473Z,21.30
2022-10-28T16:32:32.770Z,21.30
2022-10-28T16:35:03.429Z,21.20
2022-10-28T16:37:33.364Z,21.20
2022-10-28T16:40:01.813Z,21.10
2022-10-28T16:42:30.287Z,21.00
2022-10-28T16:44:58.600Z,20.90
2022-10-28T16:47:32.246Z,20.90
2022-10-28T16:50:02.657Z,20.90
2022-10-28T16:52:32.364Z,20.70
2022-10-28T16:55:03.597Z,20.70
2022-10-28T16:57:31.898Z,20.70
2022-10-28T16:59:59.973Z,20.70
2022-10-28T17:02:31.806Z,20.70
2022-10-28T17:05:00.975Z,20.60
2022-10-28T17:07:32.138Z,20.60
2022-10-28T17:10:02.991Z,20.50
2022-10-28T17:12:31.236Z,20.50
2022-10-28T17:15:01.655Z,20.40
2022-10-28T17:17:31.254Z,20.50
2022-10-28T17:19:59.613Z,20.60
2022-10-28T17:22:29.092Z,20.60
2022-10-28T17:25:10.611Z,20.60
2022-10-28T17:27:39.015Z,20.60
2022-10-28T17:30:10.884Z,20.50
2022-10-28T17:32:40.541Z,20.50
2022-10-28T17:35:09.374Z,20.60
2022-10-28T17:37:37.551Z,20.60
2022-10-28T17:40:06.889Z,20.70
2022-10-28T17:42:35.131Z,20.70
2022-10-28T17:45:05.816Z,20.70
2022-10-28T17:47:34.552Z,20.70
2022-10-28T17:50:04.370Z,20.60
2022-10-28T17:52:35.865Z,20.60
2022-10-28T17:55:09.969Z,20.60
2022-10-28T17:57:38.262Z,20.60
2022-10-28T18:00:07.282Z,20.60
2022-10-28T18:02:40.044Z,20.60
2022-10-28T18:05:13.482Z,20.60
2022-10-28T18:07:41.665Z,20.50
2022-10-28T18:10:10.934Z,20.50
2022-10-28T18:12:39.208Z,20.40
2022-10-28T18:15:11.002Z,20.40
2022-10-28T18:17:41.423Z,20.30
2022-10-28T18:20:11.986Z,20.20
2022-10-28T18:22:42.776Z,20.20
2022-10-28T18:25:12.754Z,20.20
2022-10-28T18:27:41.366Z,20.20
2022-10-28T18:30:10.732Z,20.30
2022-10-28T18:32:41.492Z,20.20
2022-10-28T18:35:11.261Z,20.30
2022-10-28T18:37:40.855Z,20.20
2022-10-28T18:40:10.266Z,20.10
2022-10-28T18:42:39.649Z,20.00
2022-10-28T18:45:08.822Z,20.00
2022-10-28T18:47:38.368Z,20.00
2022-10-28T18:50:11.321Z,20.00
2022-10-28T18:52:39.559Z,20.00
2022-10-28T18:55:11.321Z,19.90
2022-10-28T18:57:39.550Z,19.90
2022-10-28T19:00:17.882Z,19.80
2022-10-28T19:02:47.682Z,19.60
2022-10-28T19:05:20.628Z,19.60
2022-10-28T19:07:48.959Z,19.60
2022-10-28T19:10:17.258Z,19.70
2022-10-28T19:12:47.003Z,19.70
2022-10-28T19:15:18.749Z,19.60
2022-10-28T19:17:47.126Z,19.50
2022-10-28T19:20:19.687Z,19.30
2022-10-28T19:22:48.098Z,19.30
2022-10-28T19:25:16.568Z,19.30
2022-10-28T19:27:47.497Z,19.30
2022-10-28T19:30:18.519Z,19.30
2022-10-28T19:32:46.900Z,19.20
2022-10-28T19:35:15.685Z,19.10
2022-10-28T19:37:45.301Z,19.00
2022-10-28T19:40:13.494Z,18.90
2022-10-28T19:42:43.334Z,18.80
2022-10-28T19:45:14.445Z,18.70
2022-10-28T19:47:45.205Z,18.60
2022-10-28T19:50:13.426Z,18.50
2022-10-28T19:52:44.691Z,18.50
2022-10-28T19:55:15.702Z,18.40
2022-10-28T19:57:44.933Z,18.40
2022-10-28T20:00:18.371Z,18.20
2022-10-28T20:02:48.581Z,18.20
2022-10-28T20:05:16.922Z,18.10
2022-10-28T20:07:48.562Z,18.00
2022-10-28T20:10:16.860Z,17.90
2022-10-28T20:12:44.951Z,18.00
2022-10-28T20:15:13.094Z,18.20
2022-10-28T20:17:41.136Z,18.30
2022-10-28T20:20:13.962Z,18.40
2022-10-28T20:22:44.437Z,18.60
2022-10-28T20:25:14.135Z,18.80
2022-10-28T20:27:42.259Z,18.80
2022-10-28T20:30:13.894Z,18.70
2022-10-28T20:32:41.997Z,18.70
2022-10-28T20:35:10.995Z,18.50
2022-10-28T20:37:39.218Z,18.40
2022-10-28T20:40:08.728Z,18.20
2022-10-28T20:42:38.359Z,18.00
2022-10-28T20:45:07.342Z,17.90
2022-10-28T20:47:35.493Z,18.00
2022-10-28T20:50:06.899Z,18.00
2022-10-28T20:52:34.969Z,18.10
2022-10-28T20:55:03.059Z,18.20
2022-10-28T20:57:31.371Z,18.30
2022-10-28T21:00:03.328Z,18.30
2022-10-28T21:02:31.541Z,18.20
2022-10-28T21:04:59.889Z,18.20
2022-10-28T21:07:32.458Z,18.10
2022-10-28T21:10:03.230Z,18.00
2022-10-28T21:12:32.606Z,17.80
2022-10-28T21:15:02.067Z,17.60
2022-10-28T21:17:30.209Z,17.40
2022-10-28T21:19:58.451Z,17.20
2022-10-28T21:22:27.005Z,17.20
2022-10-28T21:24:59.303Z,17.10
2022-10-28T21:27:27.404Z,17.10
2022-10-28T21:29:56.860Z,17.00
2022-10-28T21:32:27.356Z,16.80
2022-10-28T21:34:55.429Z,16.70
2022-10-28T21:37:25.214Z,16.60
2022-10-28T21:39:57.240Z,16.50
2022-10-28T21:42:28.465Z,16.50
2022-10-28T21:44:56.799Z,16.40
2022-10-28T21:47:27.454Z,16.40
2022-10-28T21:49:55.588Z,16.20
2022-10-28T21:52:23.664Z,16.10
2022-10-28T21:54:51.801Z,16.10
2022-10-28T21:57:20.076Z,16.10
2022-10-28T21:59:49.598Z,16.20
2022-10-28T22:02:17.876Z,16.20
2022-10-28T22:04:50.271Z,16.20
2022-10-28T22:07:21.232Z,16.10
2022-10-28T22:09:49.408Z,16.00
2022-10-28T22:12:17.617Z,15.90
2022-10-28T22:14:45.701Z,15.90
2022-10-28T22:17:13.874Z,16.00
2022-10-28T22:19:41.964Z,16.40
2022-10-28T22:22:13.788Z,16.70
2022-10-28T22:24:41.916Z,17.00
2022-10-28T22:27:10.224Z,16.80
2022-10-28T22:29:38.277Z,16.60
2022-10-28T22:32:09.369Z,16.40
2022-10-28T22:34:39.320Z,16.10
2022-10-28T22:37:08.640Z,15.90
2022-10-28T22:39:38.139Z,15.90
2022-10-28T22:42:06.279Z,15.80
2022-10-28T22:44:38.237Z,15.60
2022-10-28T22:47:06.408Z,15.50
2022-10-28T22:49:36.703Z,15.30
2022-10-28T22:52:06.765Z,15.20
2022-10-28T22:54:34.810Z,15.30
2022-10-28T22:57:04.307Z,15.50
2022-10-28T22:59:32.729Z,15.40
2022-10-28T23:02:00.967Z,15.40
2022-10-28T23:04:29.082Z,15.30
2022-10-28T23:06:57.228Z,15.20
2022-10-28T23:09:25.373Z,15.00
2022-10-28T23:11:53.549Z,14.90
2022-10-28T23:14:23.178Z,14.70
2022-10-28T23:16:51.203Z,14.60
2022-10-28T23:19:20.521Z,14.50
2022-10-28T23:21:48.544Z,14.50
2022-10-28T23:24:19.492Z,14.50
2022-10-28T23:26:47.607Z,14.40
2022-10-28T23:29:15.795Z,14.30
2022-10-28T23:31:45.259Z,14.30
2022-10-28T23:34:13.368Z,14.30
2022-10-28T23:36:41.689Z,14.30
2022-10-28T23:39:09.918Z,14.40
2022-10-28T23:41:37.977Z,14.40
2022-10-28T23:44:06.439Z,14.30
2022-10-28T23:46:37.394Z,14.30
2022-10-28T23:49:07.203Z,14.20
2022-10-28T23:51:35.305Z,14.10
2022-10-28T23:54:05.889Z,14.20
2022-10-28T23:56:33.899Z,14.40
2022-10-28T23:59:02.343Z,14.70
